Time;durP1;ratioP1;P1;durP2;ratioP2;P2;SDS_P1;SDS_P2;PMS_P1;PMS_P2;Temp;Humidity;BMP_temperature;BMP_pressure;BME280_temperature;BME280_humidity;BME280_pressure;Samples;Min_cycle;Max_cycle;Signal;HPM_P1;HPM_P2
2021/10/04 10:30:23;;;;;;;7.17;4.60;;;;;;;15.35;38.77;102229.70;1895225;75;26712;-86
2021/10/04 10:32:52;;;;;;;8.55;5.05;;;;;;;15.22;39.51;102241.53;1828516;76;21020;-89
2021/10/04 10:35:50;;;;;;;5.62;5.05;;;;;;;15.17;39.27;102235.28;1832029;77;21168;-88
2021/10/04 10:38:21;;;;;;;4.22;3.85;;;;;;;15.12;39.53;102231.66;1822355;77;20850;-87
2021/10/04 10:41:16;;;;;;;7.70;4.60;;;;;;;15.11;39.87;102230.47;1854040;77;21527;-88
2021/10/04 10:44:09;;;;;;;4.83;4.15;;;;;;;15.10;40.03;102228.78;1824277;77;21002;-90
2021/10/04 10:46:49;;;;;;;9.63;6.12;;;;;;;15.13;40.27;102216.30;1796874;78;21526;-91
2021/10/04 10:50:13;;;;;;;5.50;4.90;;;;;;;15.18;39.67;102221.70;1799250;78;21058;-87
2021/10/04 10:52:58;;;;;;;8.48;6.30;;;;;;;15.17;39.28;102210.84;1846436;76;20997;-87
2021/10/04 10:55:36;;;;;;;8.98;5.78;;;;;;;15.20;40.63;102210.61;1816980;77;20945;-90
2021/10/04 10:58:14;;;;;;;5.65;4.72;;;;;;;15.28;39.59;102200.42;1831560;77;20990;-86
2021/10/04 11:00:48;;;;;;;5.47;4.40;;;;;;;15.36;40.36;102209.91;1835085;77;20990;-89
2021/10/04 11:03:20;;;;;;;8.40;5.30;;;;;;;15.36;39.62;102207.77;1810581;78;21306;-86
2021/10/04 11:05:49;;;;;;;6.37;5.40;;;;;;;15.29;40.33;102206.89;1829383;77;21083;-87
2021/10/04 11:08:31;;;;;;;7.50;5.10;;;;;;;15.23;39.76;102203.84;1788531;78;21053;-89
2021/10/04 11:11:03;;;;;;;6.22;5.30;;;;;;;15.16;39.60;102207.36;1841688;77;21749;-85
2021/10/04 11:13:54;;;;;;;6.75;5.20;;;;;;;15.13;39.86;102199.23;1799024;78;21028;-86
2021/10/04 11:16:28;;;;;;;14.80;9.98;;;;;;;15.13;39.64;102197.10;1829149;77;21086;-84
2021/10/04 11:18:56;;;;;;;14.60;10.48;;;;;;;15.17;39.42;102195.10;1798902;78;21068;-86
2021/10/04 11:21:29;;;;;;;8.35;5.65;;;;;;;15.18;39.67;102194.98;1799047;78;21008;-88
2021/10/04 11:24:03;;;;;;;6.37;5.15;;;;;;;15.21;39.14;102193.47;1798911;78;21527;-85
2021/10/04 11:26:36;;;;;;;7.28;5.80;;;;;;;15.21;39.64;102190.84;1798434;78;20976;-86
2021/10/04 11:29:10;;;;;;;5.72;5.17;;;;;;;15.21;39.36;102197.86;1825695;78;21126;-85
2021/10/04 11:31:44;;;;;;;6.20;5.60;;;;;;;15.20;39.74;102199.66;1828540;77;20981;-83
2021/10/04 11:34:13;;;;;;;8.70;5.17;;;;;;;15.23;39.05;102194.66;1798897;78;21467;-81
2021/10/04 11:36:54;;;;;;;6.30;5.30;;;;;;;15.26;39.99;102191.35;1798954;78;21053;-83
2021/10/04 11:39:31;;;;;;;7.28;5.83;;;;;;;15.34;40.10;102185.58;1799001;78;21139;-81
2021/10/04 11:42:04;;;;;;;8.03;5.15;;;;;;;15.43;39.13;102186.22;1828508;78;21130;-85
2021/10/04 11:44:36;;;;;;;5.45;4.53;;;;;;;15.51;38.83;102194.02;1798256;78;21507;-84
2021/10/04 11:47:06;;;;;;;7.20;4.80;;;;;;;15.60;38.55;102186.80;1798447;78;21480;-83
2021/10/04 11:49:40;;;;;;;13.78;4.80;;;;;;;15.69;38.28;102180.06;1828383;77;20993;-86
2021/10/04 11:52:15;;;;;;;9.83;4.50;;;;;;;15.78;38.15;102185.48;1798218;78;21020;-84
2021/10/04 11:54:55;;;;;;;6.67;4.55;;;;;;;15.87;37.57;102179.23;1798495;78;21033;-84
2021/10/04 11:57:28;;;;;;;9.35;4.80;;;;;;;15.94;37.83;102180.45;1798491;78;20925;-90
2021/10/04 12:00:04;;;;;;;5.33;4.83;;;;;;;16.00;37.81;102180.48;1798983;78;21005;-88
2021/10/04 12:02:37;;;;;;;7.05;4.50;;;;;;;16.09;37.97;102185.06;1804656;78;20981;-89
2021/10/04 12:05:22;;;;;;;5.33;4.78;;;;;;;16.16;37.69;102173.14;1824559;77;21025;-90
2021/10/04 12:08:09;;;;;;;5.30;4.37;;;;;;;16.21;37.67;102176.75;1831272;77;21063;-88
2021/10/04 12:11:04;;;;;;;7.55;4.55;;;;;;;16.25;36.56;102176.87;1829543;77;21085;-86
2021/10/04 12:13:36;;;;;;;8.20;4.53;;;;;;;16.22;36.45;102182.37;1820784;78;21544;-83
2021/10/04 12:16:10;;;;;;;4.90;3.85;;;;;;;16.16;37.00;102173.61;1824038;76;21116;-85
2021/10/04 12:18:43;;;;;;;9.55;4.28;;;;;;;16.12;37.45;102172.17;1831202;77;20970;-85
2021/10/04 12:21:24;;;;;;;6.30;4.10;;;;;;;16.05;37.62;102172.63;1831358;77;21056;-84
2021/10/04 12:24:16;;;;;;;8.23;4.62;;;;;;;16.02;37.32;102180.73;1862523;76;20969;-83
2021/10/04 12:27:03;;;;;;;7.08;3.92;;;;;;;16.01;36.58;102181.67;1862397;76;21041;-84
2021/10/04 12:29:51;;;;;;;6.58;4.78;;;;;;;15.96;36.12;102175.94;1826919;76;21607;-84
2021/10/04 12:32:49;;;;;;;8.60;4.62;;;;;;;15.88;36.59;102180.42;1803564;78;21799;-84
2021/10/04 12:35:25;;;;;;;16.55;5.37;;;;;;;15.83;37.00;102176.41;1788001;78;21100;-91
2021/10/04 12:37:57;;;;;;;7.05;4.60;;;;;;;15.77;38.37;102176.41;1787962;78;21050;-86
2021/10/04 12:40:44;;;;;;;4.40;3.83;;;;;;;15.72;37.78;102174.12;1806288;78;21019;-87
2021/10/04 12:43:27;;;;;;;8.73;4.62;;;;;;;15.68;38.05;102171.82;1787546;79;21109;-84
2021/10/04 12:46:10;;;;;;;6.97;4.35;;;;;;;15.62;36.94;102175.72;1786469;79;20938;-86
2021/10/04 12:48:42;;;;;;;6.92;5.08;;;;;;;15.53;37.48;102175.06;1806102;78;21091;-87
2021/10/04 12:51:23;;;;;;;15.08;4.92;;;;;;;15.43;36.90;102174.41;1806314;79;21037;-86
2021/10/04 12:53:55;;;;;;;5.35;4.83;;;;;;;15.34;37.24;102173.77;1788230;79;21008;-84
2021/10/04 12:56:32;;;;;;;14.28;5.30;;;;;;;15.25;37.51;102175.23;1776113;79;21033;-86
2021/10/04 12:59:06;;;;;;;9.00;4.97;;;;;;;15.18;38.49;102175.80;1787951;79;21150;-85
2021/10/04 13:01:35;;;;;;;10.75;5.40;;;;;;;15.11;38.01;102176.20;1787888;79;22043;-85
2021/10/04 13:04:07;;;;;;;8.10;5.60;;;;;;;15.04;38.29;102178.89;1787905;79;21029;-84
2021/10/04 13:06:37;;;;;;;6.25;5.20;;;;;;;14.97;37.69;102178.95;1787763;79;20990;-85
2021/10/04 13:09:07;;;;;;;14.15;4.80;;;;;;;14.90;37.88;102182.45;1795407;77;21517;-85
2021/10/04 13:11:36;;;;;;;8.23;5.28;;;;;;;14.83;38.92;102191.23;1808679;77;21048;-85
2021/10/04 13:14:05;;;;;;;9.55;4.53;;;;;;;14.77;39.38;102184.25;1737785;80;21203;-85
2021/10/04 13:16:34;;;;;;;12.03;4.60;;;;;;;14.70;39.55;102182.53;1761665;80;21034;-85
2021/10/04 13:19:01;;;;;;;6.37;5.05;;;;;;;14.62;39.26;102186.11;1737842;80;21109;-84
2021/10/04 13:21:28;;;;;;;6.30;4.90;;;;;;;14.58;38.93;102191.18;1691088;80;21540;-85
2021/10/04 13:23:55;;;;;;;8.65;5.20;;;;;;;14.54;38.42;102192.34;1770633;79;20986;-86
2021/10/04 13:26:24;;;;;;;7.00;4.47;;;;;;;14.51;38.25;102191.59;1782424;79;21126;-86
2021/10/04 13:28:52;;;;;;;6.90;4.47;;;;;;;14.51;38.42;102186.81;1777861;78;21151;-86
2021/10/04 13:31:19;;;;;;;10.50;4.85;;;;;;;14.52;39.15;102187.19;1742575;79;21140;-87
2021/10/04 13:33:49;;;;;;;9.85;5.30;;;;;;;14.50;39.39;102187.30;1748163;78;21096;-87
2021/10/04 13:36:17;;;;;;;50.25;29.30;;;;;;;14.49;39.29;102193.48;1759280;80;21136;-85
2021/10/04 13:38:45;;;;;;;152.62;88.20;;;;;;;14.47;38.84;102190.11;1790013;79;21089;-85
2021/10/04 13:41:13;;;;;;;214.00;126.12;;;;;;;14.46;39.01;102190.22;1791219;80;21473;-85
2021/10/04 13:43:40;;;;;;;213.52;123.30;;;;;;;14.45;39.00;102193.33;1752632;80;21650;-84
2021/10/04 13:46:08;;;;;;;226.95;121.00;;;;;;;14.44;39.47;102191.64;1744526;80;21028;-85
2021/10/04 13:48:36;;;;;;;88.22;45.45;;;;;;;14.43;39.98;102187.34;1762386;80;21017;-88
2021/10/04 13:51:04;;;;;;;70.15;36.95;;;;;;;14.39;39.91;102193.71;1687783;80;21043;-85
2021/10/04 13:53:31;;;;;;;53.38;27.30;;;;;;;14.38;39.34;102192.52;1768052;80;21036;-85
2021/10/04 13:56:02;;;;;;;53.28;25.62;;;;;;;14.39;39.36;102196.81;1765812;79;21544;-86
2021/10/04 13:58:29;;;;;;;87.37;49.48;;;;;;;14.40;39.80;102198.50;1772958;79;21068;-85
2021/10/04 14:00:57;;;;;;;38.90;29.02;;;;;;;14.39;39.56;102191.58;1773206;79;21437;-86
2021/10/04 14:03:26;;;;;;;37.17;24.98;;;;;;;14.38;39.51;102194.65;1759098;80;21076;-85
2021/10/04 14:05:54;;;;;;;18.37;11.70;;;;;;;14.39;39.28;102195.02;1750108;81;21507;-87
2021/10/04 14:08:21;;;;;;;26.93;15.50;;;;;;;14.39;39.43;102196.33;1751320;80;21037;-86
2021/10/04 14:10:48;;;;;;;20.30;12.03;;;;;;;14.38;39.81;102194.65;1794445;78;21462;-86
2021/10/04 14:13:15;;;;;;;41.45;9.95;;;;;;;14.36;40.40;102200.48;1791922;78;21072;-86
2021/10/04 14:15:43;;;;;;;55.85;10.23;;;;;;;14.32;41.11;102200.30;1824265;77;21204;-86
2021/10/04 14:18:10;;;;;;;16.87;8.85;;;;;;;14.26;41.89;102195.47;1744735;80;21111;-86
2021/10/04 14:20:37;;;;;;;83.65;14.43;;;;;;;14.20;41.24;102197.56;1754769;79;21037;-86
2021/10/04 14:23:04;;;;;;;21.20;11.12;;;;;;;14.14;41.15;102202.35;1755776;79;21107;-86
2021/10/04 14:25:31;;;;;;;8.48;6.00;;;;;;;14.09;42.49;102206.58;1797387;79;21063;-85
2021/10/04 14:27:58;;;;;;;9.88;7.05;;;;;;;14.03;41.82;102200.44;1769385;79;21785;-86
2021/10/04 14:30:25;;;;;;;10.13;6.53;;;;;;;13.96;41.58;102201.30;1757963;81;21024;-86
2021/10/04 14:32:52;;;;;;;8.63;6.28;;;;;;;13.92;41.57;102201.58;1754883;81;21029;-86
2021/10/04 14:35:19;;;;;;;11.63;6.15;;;;;;;13.85;41.73;102203.78;1729801;81;21120;-85
2021/10/04 14:37:49;;;;;;;5.78;4.90;;;;;;;13.78;42.07;102196.77;1754395;81;20946;-87
2021/10/04 14:40:18;;;;;;;26.10;6.10;;;;;;;13.70;41.49;102193.80;1754807;81;21969;-85
2021/10/04 14:42:46;;;;;;;14.55;6.20;;;;;;;13.64;44.08;102198.12;1771796;80;21033;-85
2021/10/04 14:45:13;;;;;;;14.20;6.22;;;;;;;13.56;42.58;102204.68;1755348;79;21018;-86
2021/10/04 14:47:41;;;;;;;11.40;7.03;;;;;;;13.49;42.71;102209.07;1763399;80;21498;-86
2021/10/04 14:50:09;;;;;;;17.55;8.40;;;;;;;13.44;46.02;102202.81;1790575;79;21530;-85
2021/10/04 14:52:37;;;;;;;12.60;7.45;;;;;;;13.39;43.49;102208.81;1765210;79;20996;-86
2021/10/04 14:55:07;;;;;;;29.95;8.23;;;;;;;13.30;42.97;102208.03;1792350;79;21502;-86
2021/10/04 14:57:34;;;;;;;84.80;13.70;;;;;;;13.24;45.60;102205.31;1746825;80;21016;-86
2021/10/04 15:00:02;;;;;;;15.03;7.80;;;;;;;13.19;48.79;102206.91;1707126;82;21517;-86
2021/10/04 15:02:29;;;;;;;34.20;21.62;;;;;;;13.16;45.52;102203.19;1704182;82;21020;-86
2021/10/04 15:04:56;;;;;;;124.10;68.22;;;;;;;13.12;44.82;102209.52;1707556;82;21098;-85
2021/10/04 15:07:23;;;;;;;238.65;122.70;;;;;;;13.07;45.24;102214.20;1759314;80;21003;-84
2021/10/04 15:09:50;;;;;;;144.05;86.20;;;;;;;13.01;45.16;102211.96;1766346;80;21591;-86
2021/10/04 15:12:18;;;;;;;256.68;75.50;;;;;;;12.96;45.74;102208.77;1729491;81;21971;-83
2021/10/04 15:14:45;;;;;;;281.50;74.97;;;;;;;12.91;50.98;102209.03;1764140;78;20947;-85
2021/10/04 15:17:12;;;;;;;115.82;60.28;;;;;;;12.88;57.34;102222.31;1781198;79;21427;-83
2021/10/04 15:19:40;;;;;;;122.17;60.73;;;;;;;12.84;62.53;102221.66;1759246;80;21051;-85
2021/10/04 15:22:07;;;;;;;105.80;51.53;;;;;;;12.79;54.41;102231.52;1764443;81;20989;-85
2021/10/04 15:24:34;;;;;;;139.47;56.35;;;;;;;12.71;51.22;102231.13;1763986;79;21644;-85
2021/10/04 15:27:01;;;;;;;135.75;54.77;;;;;;;12.63;50.56;102233.72;1762700;80;21093;-85
2021/10/04 15:29:28;;;;;;;89.10;49.80;;;;;;;12.57;55.95;102231.47;1792434;79;21153;-86
2021/10/04 15:31:57;;;;;;;96.80;52.55;;;;;;;12.51;50.42;102236.20;1791840;79;21110;-85
2021/10/04 15:34:27;;;;;;;105.90;54.20;;;;;;;12.44;49.47;102239.17;1767688;79;21063;-86
2021/10/04 15:36:52;;;;;;;183.07;100.22;;;;;;;12.37;49.16;102238.32;1795440;78;21017;-87
2021/10/04 15:39:20;;;;;;;203.15;110.90;;;;;;;12.30;54.72;102245.17;1792540;78;21052;-84
2021/10/04 15:41:50;;;;;;;174.80;96.32;;;;;;;12.26;61.02;102238.45;1788961;79;21038;-85
2021/10/04 15:44:17;;;;;;;217.32;98.82;;;;;;;12.24;62.26;102244.22;1797092;78;20990;-84
2021/10/04 15:46:44;;;;;;;180.07;101.25;;;;;;;12.21;80.24;102244.41;1786266;80;21006;-83
2021/10/04 15:49:11;;;;;;;193.97;113.68;;;;;;;12.21;80.51;102238.33;1757476;80;21101;-84
2021/10/04 15:51:41;;;;;;;143.90;81.50;;;;;;;12.15;65.36;102244.29;1730895;80;21965;-84
2021/10/04 15:54:09;;;;;;;150.10;77.92;;;;;;;12.06;58.44;102243.48;1754765;80;21132;-84
2021/10/04 15:56:36;;;;;;;140.43;76.62;;;;;;;11.94;56.74;102242.38;1754685;80;21023;-85
2021/10/04 16:03:03;;;;;;;209.20;98.55;;;;;;;11.68;58.46;102247.71;1769959;81;20988;-85
2021/10/04 16:05:30;;;;;;;166.60;75.90;;;;;;;11.44;60.42;102251.15;1765139;79;21049;-88
2021/10/04 16:08:05;;;;;;;126.97;55.20;;;;;;;11.31;61.27;102251.81;1770033;79;21617;-85
2021/10/04 16:10:32;;;;;;;107.37;52.90;;;;;;;11.20;62.69;102248.90;1770393;79;20978;-83
2021/10/04 16:13:00;;;;;;;146.28;80.60;;;;;;;11.07;63.83;102253.07;1772525;79;21036;-84
2021/10/04 16:15:28;;;;;;;158.87;93.75;;;;;;;10.97;64.73;102250.09;1787914;79;21025;-83
2021/10/04 16:17:56;;;;;;;236.68;136.18;;;;;;;10.88;65.81;102246.17;1760368;79;20989;-84
2021/10/04 16:20:23;;;;;;;281.65;171.45;;;;;;;10.80;66.12;102252.23;1769180;79;21092;-86
2021/10/04 16:22:50;;;;;;;317.27;190.45;;;;;;;10.72;66.38;102249.55;1795636;79;21013;-85
2021/10/04 16:25:17;;;;;;;295.27;171.05;;;;;;;10.67;67.49;102251.55;1780837;79;21056;-86
2021/10/04 16:27:46;;;;;;;246.55;140.20;;;;;;;10.63;68.88;102250.00;1750558;79;21092;-86
2021/10/04 16:30:13;;;;;;;223.00;127.15;;;;;;;10.57;67.93;102239.45;1748077;80;21056;-84
2021/10/04 16:32:40;;;;;;;215.80;120.20;;;;;;;10.53;67.90;102246.19;1755502;80;21114;-85
2021/10/04 16:35:07;;;;;;;214.12;122.53;;;;;;;10.49;70.40;102240.73;1740737;80;21488;-84
2021/10/04 16:37:37;;;;;;;215.20;126.33;;;;;;;10.46;69.96;102235.66;1718726;80;21571;-86
2021/10/04 16:40:05;;;;;;;237.08;134.37;;;;;;;10.43;73.90;102239.73;1740580;80;21028;-85
2021/10/04 16:42:36;;;;;;;229.87;135.03;;;;;;;10.40;73.78;102240.73;1745081;81;21021;-88
2021/10/04 16:45:07;;;;;;;241.48;135.52;;;;;;;10.37;74.77;102235.66;1726581;80;21149;-89
2021/10/04 16:47:36;;;;;;;207.55;121.35;;;;;;;10.34;74.34;102239.66;1772481;80;21049;-85
2021/10/04 16:50:05;;;;;;;172.78;99.85;;;;;;;10.30;76.06;102250.69;1739775;80;21606;-85
2021/10/04 16:53:21;;;;;;;139.82;79.97;;;;;;;10.27;76.55;102244.34;1744559;80;21013;-86
2021/10/04 16:55:49;;;;;;;113.32;65.65;;;;;;;10.24;76.76;102240.58;1773256;80;21061;-87
2021/10/04 16:58:16;;;;;;;120.65;61.92;;;;;;;10.21;77.47;102242.88;1766927;80;21871;-89
2021/10/04 17:00:43;;;;;;;114.55;63.30;;;;;;;10.20;92.29;102242.48;1756853;80;21146;-87
2021/10/04 17:03:14;;;;;;;90.53;51.92;;;;;;;10.23;100.00;102246.70;1752743;80;21650;-87
2021/10/04 17:05:41;;;;;;;82.88;43.75;;;;;;;10.24;100.00;102241.88;1744909;80;21061;-89
2021/10/04 17:08:08;;;;;;;62.98;38.45;;;;;;;10.26;100.00;102249.99;1770252;80;21061;-91
2021/10/04 17:10:35;;;;;;;46.33;28.45;;;;;;;10.27;97.22;102249.55;1770438;80;21635;-89
2021/10/04 17:13:05;;;;;;;36.10;22.20;;;;;;;10.30;100.00;102249.86;1742135;80;21053;-87
2021/10/04 17:15:33;;;;;;;23.77;16.42;;;;;;;10.30;93.42;102251.16;1755780;81;21006;-89
2021/10/04 17:18:04;;;;;;;19.62;13.85;;;;;;;10.29;91.83;102255.54;1754644;81;21521;-87
2021/10/04 17:20:32;;;;;;;;;;;;;;;10.28;94.51;102255.59;1757239;81;21009;-87
2021/10/04 17:23:00;;;;;;;16.82;10.70;;;;;;;10.26;95.01;102263.02;1754298;80;21121;-87
2021/10/04 17:25:27;;;;;;;16.75;11.50;;;;;;;10.24;90.68;102266.17;1742676;81;21388;-87
2021/10/04 17:27:56;;;;;;;20.30;13.22;;;;;;;10.20;92.26;102268.98;1736408;80;21306;-85
2021/10/04 17:30:24;;;;;;;23.50;15.13;;;;;;;10.18;94.84;102272.11;1733412;79;21857;-84
2021/10/04 17:32:51;;;;;;;22.90;16.25;;;;;;;10.14;94.43;102272.72;1760013;79;21031;-88
2021/10/04 17:35:18;;;;;;;26.25;16.25;;;;;;;10.14;97.14;102274.45;1801418;79;21123;-83
2021/10/04 17:37:45;;;;;;;28.85;16.97;;;;;;;10.12;97.69;102273.71;1769947;79;21033;-83
2021/10/04 17:40:14;;;;;;;25.15;17.98;;;;;;;10.10;100.00;102273.76;1755624;81;21040;-83
2021/10/04 17:42:42;;;;;;;30.35;17.82;;;;;;;10.10;100.00;102275.92;1739386;81;21606;-83
2021/10/04 17:45:13;;;;;;;29.67;16.12;;;;;;;10.11;100.00;102278.05;1770083;81;21594;-86
2021/10/04 17:47:41;;;;;;;27.05;14.28;;;;;;;10.10;100.00;102278.52;1739457;81;21125;-86
